Time;durP1;ratioP1;P1;durP2;ratioP2;P2;SDS_P1;SDS_P2;PMS_P1;PMS_P2;Temp;Humidity;BMP_temperature;BMP_pressure;BME280_temperature;BME280_humidity;BME280_pressure;Samples;Min_cycle;Max_cycle;Signal;HPM_P1;HPM_P2
2021/12/27 00:01:30;;;;;;;;;7.50;4.75;;;;;10.92;80.59;99773.69;5080963;27;47384;-70
2021/12/27 00:03:56;;;;;;;;;2.00;2.00;;;;;10.91;79.77;99771.94;5086071;27;45457;-70
2021/12/27 00:06:22;;;;;;;;;4.33;3.00;;;;;10.94;80.50;99772.84;5092968;27;45349;-70
2021/12/27 00:08:47;;;;;;;;;2.00;2.00;;;;;10.97;79.85;99769.31;5085007;27;45477;-70
2021/12/27 00:11:13;;;;;;;;;4.00;3.00;;;;;10.96;80.94;99764.94;5092173;27;47479;-70
2021/12/27 00:13:39;;;;;;;;;4.00;3.33;;;;;11.01;81.11;99772.88;5088830;27;45383;-70
2021/12/27 00:16:05;;;;;;;;;7.00;5.00;;;;;10.96;80.92;99763.16;5092768;27;45255;-70
2021/12/27 00:18:31;;;;;;;;;4.00;3.67;;;;;11.04;80.43;99773.78;5086136;27;45488;-70
2021/12/27 00:20:56;;;;;;;;;5.67;5.00;;;;;11.01;80.64;99760.56;5089296;27;47174;-70
2021/12/27 00:23:22;;;;;;;;;6.00;6.00;;;;;11.00;80.53;99760.53;5085963;27;45416;-70
2021/12/27 00:25:47;;;;;;;;;5.00;4.00;;;;;11.00;80.32;99756.13;5090527;27;45389;-70
2021/12/27 00:28:13;;;;;;;;;4.00;4.00;;;;;11.01;80.52;99757.00;5084903;27;45418;-71
2021/12/27 00:30:38;;;;;;;;;5.00;3.67;;;;;11.01;79.35;99749.06;5089465;27;45426;-70
2021/12/27 00:33:05;;;;;;;;;2.67;2.67;;;;;11.06;80.49;99752.63;5082370;27;45285;-70
2021/12/27 00:35:32;;;;;;;;;5.00;3.00;;;;;11.09;79.53;99753.56;5087000;27;45450;-70
2021/12/27 00:37:58;;;;;;;;;2.00;2.00;;;;;10.89;79.86;99707.59;5086026;27;45599;-68
2021/12/27 00:40:24;;;;;;;;;4.33;3.00;;;;;11.09;80.03;99747.34;5102097;27;48058;-69
2021/12/27 00:42:50;;;;;;;;;3.00;3.00;;;;;11.08;79.45;99742.94;5085902;27;45709;-68
2021/12/27 00:45:17;;;;;;;;;5.00;1.00;;;;;11.05;79.61;99738.53;5094201;27;45243;-70
2021/12/27 00:47:43;;;;;;;;;3.00;3.00;;;;;11.07;80.27;99746.47;5104416;27;45692;-71
2021/12/27 00:50:09;;;;;;;;;2.00;2.00;;;;;11.02;79.62;99732.34;5089080;27;45393;-70
2021/12/27 00:52:35;;;;;;;;;2.00;2.00;;;;;11.05;80.28;99741.16;5097976;27;45374;-71
2021/12/27 00:55:04;;;;;;;;;2.00;2.00;;;;;11.05;80.17;99743.81;5087721;27;45420;-70
2021/12/27 00:57:29;;;;;;;;;2.33;2.33;;;;;10.93;79.61;99726.13;5082478;27;45221;-71
2021/12/27 00:59:55;;;;;;;;;2.00;2.00;;;;;11.00;79.22;99720.88;5088798;27;45293;-70
2021/12/27 01:02:20;;;;;;;;;2.00;2.00;;;;;11.06;79.38;99734.13;5081510;27;45342;-71
2021/12/27 01:04:45;;;;;;;;;5.00;2.67;;;;;11.00;79.78;99727.03;5090162;27;45433;-71
2021/12/27 01:07:11;;;;;;;;;1.33;1.00;;;;;11.11;79.98;99742.97;5079948;27;45535;-71
2021/12/27 01:09:57;;;;;;;;;2.00;1.00;;;;;11.06;79.70;99735.03;5088329;27;46350;-71
2021/12/27 01:12:32;;;;;;;;;2.00;1.00;;;;;10.95;79.25;99712.91;5086468;27;45264;-71
2021/12/27 01:15:32;;;;;;;;;4.00;1.00;;;;;10.94;80.08;99708.50;5093913;27;45175;-71
2021/12/27 01:17:56;;;;;;;;;3.00;2.00;;;;;11.04;79.71;99726.19;5094326;27;45531;-71
2021/12/27 01:20:23;;;;;;;;;2.00;2.00;;;;;10.96;79.28;99706.75;5094839;27;46682;-71
2021/12/27 01:22:50;;;;;;;;;2.00;2.00;;;;;11.07;79.80;99720.91;5098340;27;46382;-71
2021/12/27 01:25:16;;;;;;;;;1.67;1.00;;;;;11.05;79.51;99717.38;5089591;27;45328;-71
2021/12/27 01:27:43;;;;;;;;;1.67;1.67;;;;;11.08;79.11;99722.66;5096392;27;46172;-70
2021/12/27 01:30:10;;;;;;;;;3.00;1.33;;;;;11.02;79.78;99717.34;5095251;27;46966;-71
2021/12/27 01:32:43;;;;;;;;;1.67;1.67;;;;;10.96;80.02;99694.41;5080739;27;45377;-70
2021/12/27 01:35:08;;;;;;;;;1.00;1.00;;;;;10.96;79.88;99690.88;5087344;27;45320;-68
2021/12/27 01:37:34;;;;;;;;;3.00;1.00;;;;;11.08;79.35;99711.22;5085725;27;46073;-68
2021/12/27 01:39:59;;;;;;;;;1.00;1.00;;;;;11.06;79.57;99707.66;5086469;27;46587;-68
2021/12/27 01:42:25;;;;;;;;;1.33;1.00;;;;;11.04;78.86;99697.09;5081613;27;45311;-70
2021/12/27 01:44:50;;;;;;;;;1.00;1.00;;;;;11.08;79.36;99706.81;5085022;27;45476;-70
2021/12/27 01:47:15;;;;;;;;;5.33;2.00;;;;;11.03;79.19;99689.16;5087447;27;46398;-70
2021/12/27 01:49:41;;;;;;;;;4.67;1.00;;;;;10.90;79.86;99662.66;5090068;27;46346;-70
2021/12/27 01:52:06;;;;;;;;;2.33;1.67;;;;;11.03;79.44;99684.72;5100044;27;45324;-70
2021/12/27 01:54:32;;;;;;;;;1.00;1.00;;;;;11.04;79.39;99683.00;5092622;27;45468;-70
2021/12/27 01:56:59;;;;;;;;;2.00;1.00;;;;;11.01;79.10;99683.88;5079381;27;45465;-70
2021/12/27 01:59:24;;;;;;;;;1.33;1.00;;;;;11.05;79.14;99690.06;5093830;27;45422;-70
2021/12/27 02:01:50;;;;;;;;;3.00;1.33;;;;;10.96;79.63;99675.91;5083042;27;45223;-70
2021/12/27 02:04:15;;;;;;;;;0.00;0.00;;;;;11.05;79.84;99696.22;5090958;27;45427;-71
2021/12/27 02:06:40;;;;;;;;;0.00;0.00;;;;;11.04;79.38;99688.28;5083188;27;45381;-70
2021/12/27 02:09:06;;;;;;;;;1.00;1.00;;;;;11.08;78.61;99695.34;5088668;27;45578;-68
2021/12/27 02:11:34;;;;;;;;;1.67;1.67;;;;;11.01;80.10;99688.25;5095939;27;45458;-68
2021/12/27 02:14:05;;;;;;;;;1.00;1.00;;;;;10.98;80.06;99678.56;5103428;27;45177;-68
2021/12/27 02:16:31;;;;;;;;;3.00;1.33;;;;;11.00;79.60;99674.16;5094671;27;45234;-70
2021/12/27 02:18:57;;;;;;;;;3.00;1.67;;;;;11.04;79.12;99675.06;5090904;27;46530;-70
2021/12/27 02:21:23;;;;;;;;;2.00;1.00;;;;;10.94;79.95;99664.44;5093406;27;45221;-70
2021/12/27 02:23:49;;;;;;;;;0.33;0.00;;;;;11.04;79.94;99683.88;5088116;27;45375;-70
2021/12/27 02:26:15;;;;;;;;;1.00;1.00;;;;;11.04;79.87;99683.88;5093143;27;46383;-70
2021/12/27 02:28:41;;;;;;;;;1.00;1.00;;;;;11.08;80.11;99685.66;5088376;27;45407;-70
2021/12/27 02:31:07;;;;;;;;;2.00;1.00;;;;;11.05;80.04;99680.34;5090681;27;45285;-70
2021/12/27 02:33:35;;;;;;;;;2.00;2.00;;;;;11.05;80.90;99671.53;5087132;27;45404;-70
2021/12/27 02:36:01;;;;;;;;;1.33;1.00;;;;;10.93;80.79;99654.75;5081083;27;45541;-70
2021/12/27 02:38:31;;;;;;;;;2.67;1.00;;;;;11.02;80.27;99666.25;5088891;27;46290;-70
2021/12/27 02:40:58;;;;;;;;;1.00;1.00;;;;;11.03;80.02;99665.34;5088331;27;45938;-70
2021/12/27 02:43:26;;;;;;;;;1.00;1.00;;;;;11.05;80.05;99669.78;5083695;27;45462;-70
2021/12/27 02:45:55;;;;;;;;;1.67;1.67;;;;;11.06;79.80;99666.28;5090952;27;45457;-70
2021/12/27 02:48:25;;;;;;;;;1.67;1.67;;;;;11.03;80.01;99662.69;5090184;27;46144;-70
2021/12/27 02:50:53;;;;;;;;;2.00;1.00;;;;;11.05;79.83;99664.47;5087692;27;45304;-70
2021/12/27 02:53:19;;;;;;;;;1.00;1.00;;;;;11.06;79.93;99658.34;5102204;27;45419;-70
2021/12/27 02:55:48;;;;;;;;;1.00;1.00;;;;;11.09;80.48;99649.50;5088417;27;45500;-71
2021/12/27 02:58:13;;;;;;;;;1.00;1.00;;;;;10.98;79.91;99638.91;5084450;27;48156;-70
2021/12/27 03:00:43;;;;;;;;;2.00;2.00;;;;;10.95;80.19;99637.13;5089268;27;45364;-70
2021/12/27 03:03:09;;;;;;;;;1.67;1.67;;;;;10.96;79.63;99630.97;5088843;27;45506;-70
2021/12/27 03:05:34;;;;;;;;;4.00;2.67;;;;;11.07;79.50;99644.22;5081882;27;45537;-71
2021/12/27 03:08:01;;;;;;;;;2.67;2.33;;;;;11.05;79.28;99643.31;5087040;27;46091;-70
2021/12/27 03:10:33;;;;;;;;;6.00;2.00;;;;;11.04;80.08;99646.84;5099939;27;46294;-70
2021/12/27 03:13:01;;;;;;;;;3.00;2.00;;;;;11.00;80.05;99633.59;5085005;27;45426;-70
2021/12/27 03:15:26;;;;;;;;;1.00;1.00;;;;;11.04;79.76;99640.69;5099959;27;45547;-70
2021/12/27 03:17:54;;;;;;;;;2.00;2.00;;;;;11.04;79.24;99643.34;5085824;27;46147;-70
2021/12/27 03:20:24;;;;;;;;;3.67;3.00;;;;;10.83;80.19;99607.97;5097526;27;45324;-70
2021/12/27 03:22:49;;;;;;;;;2.00;2.00;;;;;11.04;79.29;99643.34;5099164;27;45355;-70
2021/12/27 03:25:20;;;;;;;;;2.33;2.00;;;;;11.02;78.82;99635.38;5095801;27;46187;-70
2021/12/27 03:27:46;;;;;;;;;0.33;0.33;;;;;11.04;79.28;99627.47;5084097;27;46555;-70
2021/12/27 03:30:16;;;;;;;;;2.33;2.33;;;;;11.01;79.31;99631.00;5091597;27;45257;-69
2021/12/27 03:32:41;;;;;;;;;4.33;2.00;;;;;11.00;79.42;99631.84;5084079;27;45479;-68
2021/12/27 03:35:14;;;;;;;;;5.00;3.50;;;;;10.98;79.68;99610.69;5090416;27;45524;-68
2021/12/27 03:37:44;;;;;;;;;3.00;3.00;;;;;11.07;79.25;99624.84;5086903;27;46384;-68
2021/12/27 03:40:11;;;;;;;;;3.67;2.67;;;;;11.00;78.67;99609.81;5087869;27;45315;-69
2021/12/27 03:42:38;;;;;;;;;3.00;2.00;;;;;10.96;79.54;99601.00;5084148;27;45307;-68
2021/12/27 03:45:06;;;;;;;;;3.67;3.33;;;;;11.09;79.83;99617.75;5090012;27;45503;-70
2021/12/27 03:47:31;;;;;;;;;3.00;3.00;;;;;11.05;79.58;99610.72;5091123;27;45517;-70
2021/12/27 03:49:57;;;;;;;;;4.67;3.33;;;;;11.04;79.18;99609.84;5088682;27;45771;-70
2021/12/27 03:52:22;;;;;;;;;4.33;3.00;;;;;10.99;78.98;99590.44;5082251;27;45403;-70
2021/12/27 03:54:47;;;;;;;;;4.00;2.50;;;;;11.05;79.67;99598.38;5090868;27;45430;-70
2021/12/27 03:57:15;;;;;;;;;4.33;3.00;;;;;11.08;78.93;99601.03;5081162;27;45566;-70
2021/12/27 04:02:13;;;;;;;;;6.00;3.00;;;;;11.04;78.99;99579.88;5081303;27;45556;-70
2021/12/27 04:04:39;;;;;;;;;5.67;3.00;;;;;11.00;79.19;99591.31;5102029;27;46975;-70
2021/12/27 04:07:07;;;;;;;;;6.00;4.00;;;;;11.02;78.89;99590.44;5089476;27;47469;-70
2021/12/27 04:09:33;;;;;;;;;4.67;3.00;;;;;11.03;78.88;99589.53;5090182;27;45234;-70
2021/12/27 04:11:58;;;;;;;;;5.00;3.67;;;;;11.04;79.27;99586.03;5090185;27;45236;-70
2021/12/27 04:14:25;;;;;;;;;7.67;4.00;;;;;11.01;78.82;99588.69;5086306;27;46260;-70
2021/12/27 04:16:51;;;;;;;;;9.67;5.00;;;;;10.96;79.45;99580.72;5090007;27;46586;-70
2021/12/27 04:19:17;;;;;;;;;6.00;4.00;;;;;11.05;79.58;99592.22;5088810;27;45452;-70
2021/12/27 04:21:42;;;;;;;;;5.33;3.00;;;;;10.98;79.26;99571.03;5089544;27;45459;-70
2021/12/27 04:24:08;;;;;;;;;3.00;3.00;;;;;10.93;78.39;99570.13;5087669;27;45338;-70
2021/12/27 04:26:33;;;;;;;;;4.33;4.00;;;;;11.02;78.90;99581.63;5088850;27;47996;-70
2021/12/27 04:28:58;;;;;;;;;3.00;3.00;;;;;10.94;78.73;99565.72;5087456;27;45242;-70
2021/12/27 04:31:24;;;;;;;;;5.00;4.00;;;;;10.97;78.94;99563.97;5089213;27;45405;-70
2021/12/27 04:33:50;;;;;;;;;4.00;2.67;;;;;10.98;78.77;99564.88;5085005;27;45399;-70
2021/12/27 04:36:15;;;;;;;;;10.00;6.00;;;;;11.02;78.90;99578.97;5087341;27;45428;-70
2021/12/27 04:38:44;;;;;;;;;5.33;3.67;;;;;10.96;79.11;99572.78;5087228;27;45320;-70
2021/12/27 04:41:13;;;;;;;;;5.33;3.33;;;;;10.98;78.69;99578.09;5086479;27;45303;-70
2021/12/27 04:43:39;;;;;;;;;5.67;3.00;;;;;11.06;78.25;99593.97;5087637;27;45374;-70
2021/12/27 04:46:05;;;;;;;;;2.00;2.00;;;;;11.01;78.55;99582.47;5089956;27;45284;-70
2021/12/27 04:48:31;;;;;;;;;5.00;3.67;;;;;10.97;78.85;99573.66;5083408;27;45539;-70
2021/12/27 04:50:56;;;;;;;;;5.75;4.75;;;;;11.04;79.05;99593.09;5084087;27;45273;-70
2021/12/27 04:53:22;;;;;;;;;5.00;4.00;;;;;11.07;79.45;99601.91;5084816;27;45410;-70
2021/12/27 04:55:48;;;;;;;;;3.00;3.00;;;;;10.94;78.73;99582.47;5086549;27;45442;-70
2021/12/27 04:58:16;;;;;;;;;4.33;3.00;;;;;11.01;78.28;99595.69;5099507;27;45857;-70
2021/12/27 05:00:43;;;;;;;;;5.33;3.00;;;;;11.03;78.97;99594.84;5087538;27;45329;-70
2021/12/27 05:03:08;;;;;;;;;7.00;4.00;;;;;11.02;79.06;99606.28;5082900;27;45626;-70
2021/12/27 05:05:34;;;;;;;;;5.00;4.33;;;;;11.01;78.90;99596.63;5088195;27;45629;-70
2021/12/27 05:08:00;;;;;;;;;4.00;2.33;;;;;11.07;78.71;99616.91;5081348;27;45481;-70
2021/12/27 05:10:27;;;;;;;;;4.00;4.00;;;;;11.10;79.32;99620.44;5091059;27;45308;-70
2021/12/27 05:12:53;;;;;;;;;5.50;5.50;;;;;11.04;78.81;99612.47;5083703;27;45376;-70
2021/12/27 05:15:19;;;;;;;;;6.33;3.00;;;;;11.05;79.33;99613.34;5096280;27;45425;-70
2021/12/27 05:17:44;;;;;;;;;11.67;4.00;;;;;11.02;78.32;99598.38;5083845;27;45493;-70
2021/12/27 05:20:10;;;;;;;;;5.33;4.00;;;;;11.05;79.29;99597.50;5095541;27;45248;-70
2021/12/27 05:22:37;;;;;;;;;6.00;5.67;;;;;10.96;78.89;99588.66;5083141;27;45603;-70
2021/12/27 05:25:04;;;;;;;;;6.00;4.00;;;;;11.12;78.69;99613.41;5091813;27;45424;-70
2021/12/27 05:27:30;;;;;;;;;4.00;4.00;;;;;11.12;78.65;99609.88;5081493;27;45310;-70
2021/12/27 05:29:55;;;;;;;;;5.00;4.00;;;;;11.06;78.73;99594.88;5089501;27;45407;-70
2021/12/27 05:32:20;;;;;;;;;5.50;5.50;;;;;11.09;78.59;99593.97;5080689;27;45189;-70
2021/12/27 05:34:46;;;;;;;;;6.00;6.00;;;;;11.03;79.30;99589.53;5095540;27;48304;-70
2021/12/27 05:37:11;;;;;;;;;7.00;5.00;;;;;10.96;79.29;99567.50;5088413;27;45158;-70
2021/12/27 05:39:37;;;;;;;;;4.00;4.00;;;;;11.09;78.59;99584.28;5088905;27;45248;-69
2021/12/27 05:42:03;;;;;;;;;5.33;3.67;;;;;10.95;78.39;99551.63;5084152;27;45346;-70
2021/12/27 05:44:28;;;;;;;;;9.67;4.00;;;;;10.96;78.84;99550.75;5094495;27;46631;-70
2021/12/27 05:46:54;;;;;;;;;5.00;5.00;;;;;10.95;79.19;99544.59;5096589;27;45425;-69
2021/12/27 05:49:22;;;;;;;;;6.50;6.00;;;;;10.96;78.33;99543.72;5094675;27;45396;-70
2021/12/27 05:51:48;;;;;;;;;5.00;4.00;;;;;11.02;79.28;99539.31;5102139;27;45437;-70
2021/12/27 05:54:13;;;;;;;;;4.00;4.00;;;;;11.00;78.50;99536.66;5095839;27;45477;-70
2021/12/27 05:56:40;;;;;;;;;5.33;3.33;;;;;10.92;78.37;99506.66;5088966;27;45253;-71
2021/12/27 05:59:06;;;;;;;;;5.67;4.00;;;;;11.01;78.95;99521.66;5096882;27;45327;-70
2021/12/27 06:01:31;;;;;;;;;7.67;5.00;;;;;10.96;78.59;99506.69;5082899;27;45607;-70
2021/12/27 06:03:59;;;;;;;;;4.50;4.50;;;;;10.99;78.81;99505.81;5092615;27;45295;-71
2021/12/27 06:06:26;;;;;;;;;4.33;3.00;;;;;11.01;78.60;99493.50;5084081;27;45310;-71
2021/12/27 06:08:51;;;;;;;;;7.25;4.25;;;;;10.96;78.41;99479.38;5088993;27;45370;-70
2021/12/27 06:11:17;;;;;;;;;7.50;6.50;;;;;10.96;78.93;99467.03;5095622;27;45342;-71
2021/12/27 06:13:43;;;;;;;;;8.50;4.00;;;;;11.00;78.81;99459.97;5087546;27;45780;-71
2021/12/27 06:16:09;;;;;;;;;6.00;6.00;;;;;10.89;78.86;99440.56;5094722;27;45340;-71
2021/12/27 06:18:34;;;;;;;;;5.00;5.00;;;;;10.92;78.89;99444.13;5089325;27;45329;-70
2021/12/27 06:21:00;;;;;;;;;8.50;5.25;;;;;10.88;78.89;99436.19;5095108;27;45292;-70
2021/12/27 06:23:25;;;;;;;;;4.00;4.00;;;;;10.87;79.04;99431.78;5086489;27;47321;-71
2021/12/27 06:25:50;;;;;;;;;7.75;6.00;;;;;10.84;79.67;99419.44;5090785;27;45426;-71
2021/12/27 06:28:17;;;;;;;;;9.75;5.75;;;;;10.79;78.80;99407.09;5094099;27;45404;-71
2021/12/27 06:30:42;;;;;;;;;8.25;7.50;;;;;10.75;79.10;99388.59;5092775;27;45305;-70
2021/12/27 06:33:09;;;;;;;;;7.50;7.00;;;;;10.82;78.79;99385.97;5084704;27;46307;-71
2021/12/27 06:35:34;;;;;;;;;1.75;1.00;;;;;10.78;78.61;99385.06;5091460;27;45250;-70
2021/12/27 06:37:59;;;;;;;;;6.25;6.25;;;;;10.63;78.56;99348.94;5088094;27;45398;-71
2021/12/27 06:40:25;;;;;;;;;10.00;6.75;;;;;10.68;79.09;99360.41;5088694;27;45538;-70
2021/12/27 06:42:50;;;;;;;;;10.50;9.75;;;;;10.75;78.79;99375.38;5082858;27;45420;-70
2021/12/27 06:45:16;;;;;;;;;7.75;7.00;;;;;10.73;78.72;99373.63;5106437;27;45682;-70
2021/12/27 06:47:42;;;;;;;;;6.50;6.50;;;;;10.68;79.29;99373.59;5092371;27;45336;-70
2021/12/27 06:50:09;;;;;;;;;7.00;5.75;;;;;10.64;79.06;99366.56;5090845;27;45658;-70
2021/12/27 06:52:35;;;;;;;;;5.75;4.75;;;;;10.58;79.07;99353.31;5084441;27;46208;-70
2021/12/27 06:55:00;;;;;;;;;9.75;7.00;;;;;10.54;78.57;99351.56;5082715;27;46056;-70
2021/12/27 06:57:25;;;;;;;;;8.50;7.00;;;;;10.60;79.30;99378.00;5083683;27;45509;-70
2021/12/27 06:59:51;;;;;;;;;7.75;6.00;;;;;10.58;78.28;99371.81;5091863;27;45502;-70
2021/12/27 07:02:16;;;;;;;;;9.00;8.00;;;;;10.51;79.07;99365.66;5082228;27;46107;-70
2021/12/27 07:04:42;;;;;;;;;12.25;7.00;;;;;10.43;78.11;99356.84;5092680;27;45544;-70
2021/12/27 07:07:07;;;;;;;;;10.00;7.00;;;;;10.38;79.14;99347.16;5090498;27;45505;-71
2021/12/27 07:09:32;;;;;;;;;5.50;5.50;;;;;10.49;78.88;99369.19;5091199;27;45376;-70
2021/12/27 07:11:58;;;;;;;;;6.50;6.00;;;;;10.43;78.94;99358.59;5090967;27;45474;-71
2021/12/27 07:14:23;;;;;;;;;7.25;5.00;;;;;10.48;78.14;99378.00;5092377;27;45229;-70
2021/12/27 07:16:49;;;;;;;;;10.50;9.50;;;;;10.45;79.01;99370.06;5089862;27;45279;-70
2021/12/27 07:19:14;;;;;;;;;6.75;5.00;;;;;10.36;79.42;99354.19;5089803;27;45400;-70
2021/12/27 07:21:39;;;;;;;;;10.75;8.00;;;;;10.34;79.04;99342.75;5091193;27;45416;-70
2021/12/27 07:24:05;;;;;;;;;7.00;7.00;;;;;10.42;79.00;99365.66;5087874;27;45225;-70
2021/12/27 07:26:31;;;;;;;;;4.25;4.25;;;;;10.42;78.91;99378.88;5090577;27;45403;-70
2021/12/27 07:28:56;;;;;;;;;7.00;5.00;;;;;10.41;77.97;99378.84;5086964;27;45454;-70
2021/12/27 07:31:22;;;;;;;;;4.00;4.00;;;;;10.34;78.80;99372.69;5089471;27;45303;-70
2021/12/27 07:33:47;;;;;;;;;5.75;5.75;;;;;10.33;79.12;99380.59;5084730;27;45626;-70
2021/12/27 07:36:13;;;;;;;;;7.25;6.75;;;;;10.30;78.67;99390.25;5087132;27;45327;-70
2021/12/27 07:38:40;;;;;;;;;7.75;6.25;;;;;10.33;78.57;99389.38;5087761;27;45608;-71
2021/12/27 07:41:05;;;;;;;;;1.50;1.50;;;;;10.25;79.22;99380.53;5086778;27;46266;-71
2021/12/27 07:43:31;;;;;;;;;7.00;6.50;;;;;10.29;79.53;99393.78;5087034;27;45373;-70
2021/12/27 07:45:57;;;;;;;;;6.25;5.00;;;;;10.24;78.72;99390.22;5094941;27;45359;-71
2021/12/27 07:48:22;;;;;;;;;8.00;6.00;;;;;10.13;78.46;99389.28;5089821;27;45473;-71
2021/12/27 07:50:48;;;;;;;;;6.00;5.75;;;;;10.11;79.25;99382.25;5089635;27;48082;-71
2021/12/27 07:53:13;;;;;;;;;9.75;6.75;;;;;10.11;79.29;99376.97;5102930;27;45473;-71
2021/12/27 07:55:39;;;;;;;;;8.00;5.50;;;;;10.16;79.42;99380.50;5088326;27;45215;-71
2021/12/27 07:58:05;;;;;;;;;7.75;5.75;;;;;10.13;79.22;99373.47;5083348;27;45607;-71
2021/12/27 08:00:31;;;;;;;;;6.50;5.75;;;;;10.07;78.91;99373.44;5089917;27;46234;-71
2021/12/27 08:02:56;;;;;;;;;5.50;4.25;;;;;9.93;79.50;99352.28;5083370;27;45347;-71
2021/12/27 08:05:22;;;;;;;;;6.00;5.00;;;;;10.00;78.42;99374.31;5090122;27;45335;-70
2021/12/27 08:07:47;;;;;;;;;6.25;5.00;;;;;10.07;79.07;99384.00;5084378;27;45455;-70
2021/12/27 08:10:14;;;;;;;;;7.25;5.00;;;;;10.11;79.10;99390.16;5092167;27;46322;-70
2021/12/27 08:12:40;;;;;;;;;5.00;5.00;;;;;10.11;78.66;99383.16;5085327;27;45300;-71
2021/12/27 08:15:08;;;;;;;;;4.00;4.00;;;;;10.03;78.73;99374.31;5092249;27;45339;-71
2021/12/27 08:17:33;;;;;;;;;5.00;4.25;;;;;10.08;78.79;99378.75;5085265;27;45254;-70
2021/12/27 08:19:59;;;;;;;;;4.00;3.00;;;;;9.99;79.08;99356.69;5091766;27;45245;-71
2021/12/27 08:22:25;;;;;;;;;4.75;3.25;;;;;10.07;78.95;99362.88;5085128;27;45236;-71
2021/12/27 08:24:51;;;;;;;;;4.75;4.00;;;;;10.02;79.42;99359.34;5098749;27;45331;-71
2021/12/27 08:27:19;;;;;;;;;3.75;3.75;;;;;9.98;79.28;99358.47;5095696;27;45264;-71
2021/12/27 08:29:44;;;;;;;;;7.25;4.25;;;;;10.03;79.26;99363.75;5089441;27;45325;-71
2021/12/27 08:32:10;;;;;;;;;3.00;3.00;;;;;10.00;79.40;99366.41;5100277;27;45314;-71
2021/12/27 08:34:35;;;;;;;;;7.25;4.00;;;;;10.05;79.66;99368.19;5102018;27;46021;-71
2021/12/27 08:37:01;;;;;;;;;3.00;2.00;;;;;10.06;79.27;99364.66;5101309;27;45177;-73
2021/12/27 08:39:26;;;;;;;;;4.75;2.00;;;;;10.02;79.17;99357.56;5084486;27;47345;-70
2021/12/27 08:41:52;;;;;;;;;6.50;3.75;;;;;9.85;78.65;99331.13;5083199;27;45240;-71
2021/12/27 08:44:19;;;;;;;;;4.50;4.50;;;;;9.98;78.58;99353.19;5091639;27;45513;-70
2021/12/27 08:46:45;;;;;;;;;4.25;4.25;;;;;9.86;78.30;99327.63;5088228;27;45417;-70
2021/12/27 08:49:11;;;;;;;;;4.50;4.50;;;;;9.96;78.47;99336.44;5091415;27;45647;-71
2021/12/27 08:51:36;;;;;;;;;4.75;4.75;;;;;10.04;78.48;99350.56;5080165;27;45350;-71
2021/12/27 08:54:03;;;;;;;;;7.00;5.25;;;;;9.90;78.84;99325.00;5102402;27;45286;-71
2021/12/27 08:56:29;;;;;;;;;5.00;4.00;;;;;10.11;78.33;99350.56;5081088;27;46098;-71
2021/12/27 08:58:54;;;;;;;;;8.00;3.75;;;;;10.09;78.33;99335.63;5084170;27;47270;-71
2021/12/27 09:01:20;;;;;;;;;4.75;3.00;;;;;10.11;78.21;99343.56;5080128;27;45386;-71
2021/12/27 09:03:46;;;;;;;;;7.75;6.00;;;;;10.09;78.50;99332.09;5086634;27;45416;-71
2021/12/27 09:06:11;;;;;;;;;3.00;3.00;;;;;9.97;78.27;99317.13;5093568;27;45293;-71
2021/12/27 09:08:36;;;;;;;;;4.75;3.00;;;;;10.08;78.15;99344.41;5085920;27;45407;-71
2021/12/27 09:11:02;;;;;;;;;4.00;4.00;;;;;9.96;78.31;99314.44;5080015;27;45305;-71
2021/12/27 09:13:29;;;;;;;;;5.50;5.00;;;;;10.09;78.00;99343.53;5100943;27;45344;-71
2021/12/27 09:15:56;;;;;;;;;4.25;3.75;;;;;9.99;78.52;99317.09;5095197;27;45433;-71
2021/12/27 09:18:22;;;;;;;;;6.75;4.75;;;;;10.01;78.97;99324.16;5082825;27;47982;-71
2021/12/27 09:20:47;;;;;;;;;3.50;3.50;;;;;10.13;77.84;99338.25;5094256;27;45307;-71
2021/12/27 09:23:13;;;;;;;;;3.25;3.25;;;;;10.14;78.53;99332.09;5083023;27;45342;-71
2021/12/27 09:25:38;;;;;;;;;4.00;2.50;;;;;10.11;77.83;99319.78;5093507;27;45398;-71
2021/12/27 09:28:04;;;;;;;;;2.00;2.00;;;;;10.17;79.07;99322.44;5081076;27;47225;-71
2021/12/27 09:30:29;;;;;;;;;6.00;4.00;;;;;10.12;78.21;99313.63;5092462;27;45443;-70
2021/12/27 09:32:54;;;;;;;;;6.50;4.00;;;;;10.08;77.89;99306.56;5080165;27;45471;-71
2021/12/27 09:35:20;;;;;;;;;7.50;5.75;;;;;10.23;78.55;99327.72;5106332;27;46929;-71
2021/12/27 09:37:45;;;;;;;;;2.00;2.00;;;;;10.26;78.01;99330.38;5096081;27;46624;-71
2021/12/27 09:40:11;;;;;;;;;4.75;4.75;;;;;10.18;78.66;99316.25;5085189;27;45270;-71
2021/12/27 09:42:38;;;;;;;;;7.75;4.00;;;;;10.33;78.07;99327.75;5082184;27;45525;-70
2021/12/27 09:45:06;;;;;;;;;4.75;3.50;;;;;10.30;77.49;99316.31;5104138;27;45990;-71
2021/12/27 09:47:32;;;;;;;;;2.67;2.67;;;;;10.35;78.43;99310.16;5087821;27;45386;-70
2021/12/27 09:49:58;;;;;;;;;4.00;4.00;;;;;10.24;78.76;99311.00;5092518;27;45577;-71
2021/12/27 09:52:23;;;;;;;;;3.75;3.75;;;;;10.29;78.42;99311.91;5079774;27;45318;-71
2021/12/27 09:54:49;;;;;;;;;5.00;5.00;;;;;10.22;78.46;99301.31;5089818;27;45399;-71
2021/12/27 09:57:15;;;;;;;;;4.00;4.00;;;;;10.32;78.92;99321.59;5081471;27;46297;-70
2021/12/27 09:59:40;;;;;;;;;3.25;2.50;;;;;10.26;77.95;99300.44;5102166;27;45432;-71
2021/12/27 10:02:06;;;;;;;;;5.00;4.00;;;;;10.34;77.76;99326.91;5109529;27;45730;-71
2021/12/27 10:04:32;;;;;;;;;3.00;3.00;;;;;10.32;78.30;99323.38;5087922;27;45390;-71
2021/12/27 10:06:57;;;;;;;;;5.25;4.00;;;;;10.30;78.24;99334.78;5088726;27;45269;-71
2021/12/27 10:09:23;;;;;;;;;5.75;4.50;;;;;10.14;78.60;99303.94;5087300;27;45324;-71
2021/12/27 10:11:49;;;;;;;;;7.00;4.00;;;;;10.25;78.26;99322.44;5089421;27;45790;-71
2021/12/27 10:14:19;;;;;;;;;4.50;4.00;;;;;10.23;78.10;99316.28;5087255;27;45324;-71
2021/12/27 10:17:06;;;;;;;;;7.25;4.00;;;;;10.24;78.18;99332.13;5087122;27;48337;-71
2021/12/27 10:19:33;;;;;;;;;3.25;3.25;;;;;10.23;78.71;99325.09;5093684;27;45362;-72
2021/12/27 10:21:59;;;;;;;;;4.25;4.25;;;;;10.24;79.18;99318.91;5088857;27;45235;-71
2021/12/27 10:24:29;;;;;;;;;3.00;3.00;;;;;10.24;78.26;99316.28;5089537;27;45617;-71
2021/12/27 10:26:58;;;;;;;;;5.00;3.00;;;;;10.12;78.99;99300.41;5096279;27;48197;-71
2021/12/27 10:29:27;;;;;;;;;3.75;3.75;;;;;10.22;79.43;99318.06;5086515;27;45460;-71
2021/12/27 10:31:54;;;;;;;;;3.25;2.75;;;;;10.26;78.98;99311.00;5086758;27;45286;-71
2021/12/27 10:34:22;;;;;;;;;4.67;3.00;;;;;10.23;78.96;99303.97;5086143;27;45501;-71
2021/12/27 10:37:08;;;;;;;;;9.50;9.50;;;;;10.28;78.84;99309.28;5087959;27;46744;-71
2021/12/27 10:39:55;;;;;;;;;8.00;4.25;;;;;10.26;79.35;99288.13;5087706;27;45407;-71
2021/12/27 10:42:25;;;;;;;;;6.25;5.00;;;;;10.23;79.04;99280.19;5091396;27;47315;-71
2021/12/27 10:44:53;;;;;;;;;4.75;4.75;;;;;10.21;78.49;99281.06;5097575;27;46550;-70
2021/12/27 10:47:37;;;;;;;;;3.25;3.25;;;;;10.17;79.12;99274.91;5100644;27;45390;-71
2021/12/27 10:50:05;;;;;;;;;5.00;4.00;;;;;10.33;78.54;99306.63;5095409;27;45405;-70
2021/12/27 10:52:49;;;;;;;;;3.00;3.00;;;;;10.34;79.00;99303.13;5104510;27;45467;-71
2021/12/27 10:55:38;;;;;;;;;6.25;4.00;;;;;10.19;78.43;99288.09;5083172;27;45204;-70
2021/12/27 10:58:37;;;;;;;;;4.50;3.75;;;;;10.24;78.12;99294.28;5080580;27;47154;-70
2021/12/27 11:01:09;;;;;;;;;4.75;4.75;;;;;10.34;78.57;99317.22;5080816;27;45331;-70
2021/12/27 11:03:42;;;;;;;;;5.50;4.00;;;;;10.36;79.11;99314.56;5088063;27;45391;-70
2021/12/27 11:06:10;;;;;;;;;3.50;2.75;;;;;10.25;78.66;99298.66;5094530;27;45453;-70
2021/12/27 11:08:42;;;;;;;;;4.50;4.50;;;;;10.31;79.14;99304.00;5103337;27;47132;-70
2021/12/27 11:11:08;;;;;;;;;3.25;3.25;;;;;10.35;78.95;99320.72;5093616;27;45287;-71
2021/12/27 11:13:35;;;;;;;;;3.75;3.75;;;;;10.38;79.05;99326.91;5101432;27;45566;-70
2021/12/27 11:16:02;;;;;;;;;7.25;7.00;;;;;10.40;78.95;99327.78;5093769;27;45370;-69
2021/12/27 11:18:27;;;;;;;;;5.00;4.50;;;;;10.33;79.22;99310.16;5085895;27;45344;-69
2021/12/27 11:20:56;;;;;;;;;7.00;5.00;;;;;10.45;78.90;99327.81;5090394;27;45430;-70
2021/12/27 11:23:23;;;;;;;;;3.00;3.00;;;;;10.43;79.31;99319.84;5083967;27;45316;-69
2021/12/27 11:26:00;;;;;;;;;6.25;4.00;;;;;10.52;78.88;99333.06;5099396;27;45512;-70
2021/12/27 11:28:35;;;;;;;;;6.75;5.25;;;;;10.52;78.91;99319.84;5111082;27;47504;-70
2021/12/27 11:31:24;;;;;;;;;4.75;2.00;;;;;10.58;79.04;99329.53;5086180;27;45383;-70
2021/12/27 11:34:00;;;;;;;;;5.00;3.00;;;;;10.58;78.82;99315.47;5085112;27;45394;-70
2021/12/27 11:36:29;;;;;;;;;8.75;7.00;;;;;10.52;78.74;99298.72;5087615;27;45372;-70